Time;durP1;ratioP1;P1;durP2;ratioP2;P2;SDS_P1;SDS_P2;PMS_P1;PMS_P2;Temp;Humidity;BMP_temperature;BMP_pressure;BME280_temperature;BME280_humidity;BME280_pressure;Samples;Min_cycle;Max_cycle;Signal;HPM_P1;HPM_P2
2021/03/17 12:34:52;;;;;;;0.50;0.50;;;;;;;9.64;68.83;102129.59;6185544;22;20056;-93
2021/03/17 12:39:51;;;;;;;0.00;0.00;;;;;;;12.05;73.24;102136.72;5066337;28;20909;-62
2021/03/17 12:42:17;;;;;;;0.15;0.15;;;;;;;13.18;69.79;102146.41;5063449;28;20050;-62
2021/03/17 12:44:43;;;;;;;0.17;0.17;;;;;;;13.97;67.93;102148.63;5068002;28;20046;-62
2021/03/17 12:47:08;;;;;;;0.20;0.20;;;;;;;14.55;66.94;102149.41;5061856;28;20552;-62
2021/03/17 12:49:34;;;;;;;0.00;0.00;;;;;;;15.00;66.41;102154.16;5064121;28;20108;-64
2021/03/17 12:52:00;;;;;;;0.10;0.10;;;;;;;15.36;66.04;102156.31;5067851;28;20029;-63
2021/03/17 12:54:25;;;;;;;0.00;0.00;;;;;;;15.62;66.10;102147.88;5061623;28;20025;-64
2021/03/17 12:56:51;;;;;;;0.00;0.00;;;;;;;15.85;65.86;102156.88;5053367;28;20036;-62
2021/03/17 12:59:17;;;;;;;0.35;0.35;;;;;;;16.02;65.88;102152.16;5055845;28;20473;-63
2021/03/17 13:01:42;;;;;;;1.15;0.55;;;;;;;16.18;65.89;102162.03;5058883;28;20041;-64
2021/03/17 13:04:08;;;;;;;0.10;0.10;;;;;;;16.28;66.01;102159.06;5046790;28;20021;-62
2021/03/17 13:06:34;;;;;;;0.10;0.10;;;;;;;16.39;65.92;102167.59;5046813;28;20094;-62
2021/03/17 13:09:02;;;;;;;0.63;0.57;;;;;;;16.47;65.95;102166.66;5047825;28;20353;-63
2021/03/17 13:11:29;;;;;;;0.00;0.00;;;;;;;16.54;65.88;102173.00;5067806;28;20086;-62
2021/03/17 13:13:55;;;;;;;0.00;0.00;;;;;;;16.61;65.80;102178.53;5065190;28;20027;-62
2021/03/17 13:16:21;;;;;;;0.20;0.20;;;;;;;16.66;65.91;102176.94;5067539;28;20466;-62
2021/03/17 13:18:48;;;;;;;0.20;0.20;;;;;;;16.72;65.84;102179.97;5067346;28;20487;-64
2021/03/17 13:21:14;;;;;;;13.80;1.48;;;;;;;16.75;65.91;102182.31;5067588;28;20556;-63
2021/03/17 13:23:39;;;;;;;0.00;0.00;;;;;;;16.77;66.06;102178.38;5067328;28;20051;-64
2021/03/17 13:26:05;;;;;;;0.00;0.00;;;;;;;16.80;66.01;102182.59;5067472;28;20107;-63
2021/03/17 13:28:31;;;;;;;0.28;0.28;;;;;;;16.82;66.02;102181.38;5063252;28;20726;-63
2021/03/17 13:30:56;;;;;;;0.00;0.00;;;;;;;16.84;65.88;102179.34;5067374;28;20056;-64
2021/03/17 13:33:22;;;;;;;0.10;0.10;;;;;;;16.88;65.83;102174.34;5067368;28;20112;-63
2021/03/17 13:35:48;;;;;;;0.00;0.00;;;;;;;16.91;65.70;102171.28;5067585;28;20435;-64
2021/03/17 13:38:14;;;;;;;0.10;0.10;;;;;;;16.92;65.66;102183.81;5066669;28;20075;-63
2021/03/17 13:40:39;;;;;;;0.00;0.00;;;;;;;16.93;65.57;102171.91;5067245;28;20028;-64
2021/03/17 13:43:06;;;;;;;0.28;0.28;;;;;;;16.95;65.50;102179.88;5067009;28;20418;-62
2021/03/17 13:45:31;;;;;;;0.20;0.20;;;;;;;16.95;65.44;102179.88;5067059;28;20029;-62
2021/03/17 13:47:57;;;;;;;0.00;0.00;;;;;;;16.95;65.39;102186.16;5064090;28;20387;-62
2021/03/17 13:50:24;;;;;;;2.53;2.13;;;;;;;16.96;65.32;102178.88;5058399;28;20112;-63
2021/03/17 13:52:51;;;;;;;0.00;0.00;;;;;;;16.96;65.22;102181.56;5053097;28;20108;-63
2021/03/17 13:55:16;;;;;;;0.25;0.25;;;;;;;16.96;65.05;102184.28;5053862;28;20064;-62
2021/03/17 13:57:42;;;;;;;0.03;0.03;;;;;;;16.95;64.98;102186.16;5053728;28;20476;-64
2021/03/17 14:00:09;;;;;;;0.00;0.00;;;;;;;16.96;64.83;102177.00;5053454;28;20035;-64
2021/03/17 14:02:35;;;;;;;0.00;0.00;;;;;;;16.95;64.79;102164.47;5053701;28;20025;-64
2021/03/17 14:05:01;;;;;;;5.00;2.65;;;;;;;16.96;64.84;102165.31;5053819;28;20113;-64
2021/03/17 14:07:26;;;;;;;0.00;0.00;;;;;;;16.97;64.63;102166.97;5050466;28;20104;-62
2021/03/17 14:09:52;;;;;;;0.70;0.63;;;;;;;16.98;64.47;102168.66;5050565;28;20032;-63
2021/03/17 14:12:18;;;;;;;31.38;1.10;;;;;;;16.98;64.33;102164.06;5051982;28;20511;-63
2021/03/17 14:14:44;;;;;;;0.20;0.20;;;;;;;17.00;64.30;102175.56;5052733;28;20100;-63
2021/03/17 14:17:09;;;;;;;0.00;0.00;;;;;;;17.01;64.08;102169.13;5053273;28;20036;-63
2021/03/17 14:19:35;;;;;;;0.10;0.10;;;;;;;17.01;63.99;102173.72;5045885;28;20025;-63
2021/03/17 14:22:01;;;;;;;0.20;0.20;;;;;;;16.99;63.89;102165.75;5049435;28;20024;-64
2021/03/17 14:24:27;;;;;;;0.00;0.00;;;;;;;16.99;63.82;102160.31;5051618;28;20484;-64
2021/03/17 14:26:52;;;;;;;0.00;0.00;;;;;;;16.99;63.67;102173.88;5053064;28;20036;-64
2021/03/17 14:29:18;;;;;;;0.22;0.22;;;;;;;17.01;63.60;102176.44;5046301;28;20106;-62
2021/03/17 14:31:44;;;;;;;0.00;0.00;;;;;;;16.99;63.60;102176.59;5052496;28;20025;-63
2021/03/17 14:34:09;;;;;;;0.15;0.15;;;;;;;17.00;63.33;102181.00;5051839;28;20490;-64
2021/03/17 14:36:35;;;;;;;0.00;0.00;;;;;;;16.99;63.50;102176.59;5052075;28;20025;-62
2021/03/17 14:39:01;;;;;;;0.00;0.00;;;;;;;16.98;63.33;102180.34;5051484;28;20075;-63
2021/03/17 14:41:26;;;;;;;0.10;0.10;;;;;;;16.97;63.22;102175.94;5052023;28;20032;-64
2021/03/17 14:43:52;;;;;;;0.00;0.00;;;;;;;16.97;63.17;102175.13;5052052;28;20043;-64
2021/03/17 14:46:18;;;;;;;0.00;0.00;;;;;;;16.96;63.19;102171.56;5052312;28;20025;-62
2021/03/17 14:48:43;;;;;;;0.80;0.52;;;;;;;16.96;63.07;102166.13;5047290;28;20032;-63
2021/03/17 14:51:09;;;;;;;3.47;1.30;;;;;;;16.95;62.86;102169.88;5047514;28;20021;-63
2021/03/17 14:53:36;;;;;;;0.15;0.15;;;;;;;16.95;62.65;102169.88;5052372;28;20021;-64
2021/03/17 14:56:03;;;;;;;0.00;0.00;;;;;;;16.95;62.48;102166.31;5052438;28;20040;-64
2021/03/17 14:58:29;;;;;;;0.22;0.22;;;;;;;16.95;62.78;102161.75;5052792;28;20115;-62
2021/03/17 15:00:54;;;;;;;0.00;0.00;;;;;;;16.98;62.53;102157.81;5049347;28;20115;-66
2021/03/17 15:03:20;;;;;;;0.00;0.00;;;;;;;17.84;53.21;102156.91;5043047;28;20024;-68
2021/03/17 15:05:47;;;;;;;0.00;0.00;;;;;;;17.59;55.40;102151.00;5051588;28;20017;-61
2021/03/17 15:08:12;;;;;;;0.10;0.10;;;;;;;17.28;56.98;102148.56;5052844;28;20040;-62
2021/03/17 15:10:38;;;;;;;0.03;0.03;;;;;;;17.17;58.02;102158.06;5050550;28;20027;-60
2021/03/17 15:13:04;;;;;;;0.00;0.00;;;;;;;17.09;58.86;102158.16;5052522;28;20111;-58
2021/03/17 15:15:30;;;;;;;14.02;1.17;;;;;;;17.04;59.49;102155.16;5052380;28;20063;-60
2021/03/17 15:17:55;;;;;;;1.27;0.95;;;;;;;16.99;59.79;102160.31;5052192;28;20091;-60
2021/03/17 15:20:23;;;;;;;0.95;0.45;;;;;;;16.98;59.93;102168.66;5052184;28;20112;-60
2021/03/17 15:22:48;;;;;;;0.00;0.00;;;;;;;16.97;60.26;102156.13;5052499;28;20487;-60
2021/03/17 15:25:14;;;;;;;0.00;0.00;;;;;;;16.96;60.36;102166.13;5052232;28;20053;-59
2021/03/17 15:27:42;;;;;;;0.47;0.28;;;;;;;16.97;60.45;102164.25;5051000;28;20468;-59
2021/03/17 15:30:08;;;;;;;0.00;0.00;;;;;;;16.96;60.55;102162.59;5052185;28;20376;-59
2021/03/17 15:32:34;;;;;;;0.28;0.28;;;;;;;16.94;55.07;102162.75;5052637;28;20380;-56
2021/03/17 15:35:00;;;;;;;2.78;0.20;;;;;;;16.99;56.63;102162.19;5050535;28;20032;-60
2021/03/17 15:37:25;;;;;;;0.75;0.68;;;;;;;17.04;57.68;102174.16;5049267;28;20472;-59
2021/03/17 15:39:51;;;;;;;0.98;0.98;;;;;;;17.07;58.48;102167.53;5051828;28;20032;-57
2021/03/17 15:42:17;;;;;;;2.42;2.13;;;;;;;17.08;59.13;102171.91;5051856;28;20025;-57
2021/03/17 15:44:43;;;;;;;0.90;0.90;;;;;;;17.08;59.52;102172.75;5051727;28;20032;-59
2021/03/17 15:47:08;;;;;;;1.45;1.35;;;;;;;17.08;59.79;102180.91;5050678;28;20496;-56
2021/03/17 15:49:34;;;;;;;0.65;0.65;;;;;;;17.09;59.91;102166.28;5052185;28;20068;-56
2021/03/17 15:52:00;;;;;;;1.20;0.75;;;;;;;17.07;60.11;102168.38;5051877;28;20032;-57
2021/03/17 15:54:26;;;;;;;3.95;0.85;;;;;;;17.07;60.21;102160.22;5047685;28;20025;-56
2021/03/17 15:56:52;;;;;;;0.13;0.13;;;;;;;17.08;60.29;102170.06;5049973;28;20372;-59
2021/03/17 15:59:18;;;;;;;1.45;0.73;;;;;;;17.09;60.36;102169.00;5045595;28;20028;-57
2021/03/17 16:01:43;;;;;;;1.80;1.65;;;;;;;17.10;60.29;102172.56;5051328;28;20036;-55
2021/03/17 16:04:10;;;;;;;0.10;0.10;;;;;;;17.10;60.39;102170.69;5051650;28;20468;-59
2021/03/17 16:06:35;;;;;;;20.75;3.40;;;;;;;17.10;60.32;102173.41;5048464;28;20387;-59
2021/03/17 16:09:01;;;;;;;1.33;1.23;;;;;;;17.10;60.33;102167.97;5050144;28;20112;-58
2021/03/17 16:11:26;;;;;;;0.32;0.32;;;;;;;17.09;60.48;102173.59;5049802;28;20029;-57
2021/03/17 16:13:54;;;;;;;0.32;0.32;;;;;;;17.09;60.51;102171.72;5049515;28;20063;-57
2021/03/17 16:16:20;;;;;;;0.13;0.13;;;;;;;17.08;60.54;102163.78;5049594;28;20033;-60
2021/03/17 16:18:46;;;;;;;5.13;0.85;;;;;;;17.07;60.42;102162.09;5048411;28;20021;-55
2021/03/17 16:21:11;;;;;;;0.05;0.05;;;;;;;17.07;60.21;102172.97;5051026;28;20032;-59
2021/03/17 16:23:38;;;;;;;0.00;0.00;;;;;;;17.07;60.19;102168.38;5049840;28;20025;-57
2021/03/17 16:26:03;;;;;;;23.55;0.93;;;;;;;17.07;60.13;102173.78;5049745;28;20040;-58
2021/03/17 16:28:29;;;;;;;0.45;0.45;;;;;;;17.06;60.16;102182.97;5051293;28;20375;-59
2021/03/17 16:30:55;;;;;;;4.53;2.03;;;;;;;17.07;60.05;102173.78;5051287;28;20110;-59
2021/03/17 16:33:20;;;;;;;0.95;0.73;;;;;;;17.07;60.01;102172.97;5051163;28;20108;-57
2021/03/17 16:35:46;;;;;;;0.30;0.30;;;;;;;17.08;59.92;102171.91;5050978;28;20025;-59
2021/03/17 16:38:13;;;;;;;0.47;0.47;;;;;;;17.08;59.91;102188.22;5046980;28;20060;-59
2021/03/17 16:40:39;;;;;;;0.57;0.57;;;;;;;17.08;59.89;102186.31;5051137;28;20387;-56
2021/03/17 16:43:06;;;;;;;0.20;0.20;;;;;;;17.08;59.70;102180.91;5050773;28;20025;-59
2021/03/17 16:45:33;;;;;;;0.75;0.52;;;;;;;17.10;59.62;102172.56;5050915;28;20098;-59
2021/03/17 16:47:58;;;;;;;1.98;1.85;;;;;;;17.10;59.58;102167.13;5048588;28;20033;-56
2021/03/17 16:50:24;;;;;;;0.30;0.30;;;;;;;17.08;59.58;102170.06;5051284;28;20472;-56
2021/03/17 16:52:50;;;;;;;1.85;0.80;;;;;;;17.09;59.31;102177.16;5051135;28;20122;-59
2021/03/17 16:55:16;;;;;;;0.00;0.00;;;;;;;17.08;59.45;102175.47;5050548;28;20039;-59
2021/03/17 16:57:42;;;;;;;0.15;0.15;;;;;;;17.08;59.51;102175.47;5032655;28;20060;-59
2021/03/17 17:00:11;;;;;;;0.03;0.03;;;;;;;17.07;59.46;102181.09;5029607;28;20044;-59
2021/03/17 17:02:36;;;;;;;1.08;0.75;;;;;;;17.06;59.54;102179.38;5026987;28;20036;-57
2021/03/17 17:05:03;;;;;;;0.00;0.00;;;;;;;17.05;58.94;102186.69;5031031;28;20038;-61
2021/03/17 17:07:28;;;;;;;0.57;0.28;;;;;;;17.04;58.74;102185.00;5030994;28;20033;-56
2021/03/17 17:09:54;;;;;;;0.00;0.00;;;;;;;17.04;56.78;102190.44;5030908;28;20395;-56
2021/03/17 17:12:20;;;;;;;0.00;0.00;;;;;;;17.04;56.42;102201.28;5031212;28;20026;-57
2021/03/17 17:14:45;;;;;;;0.00;0.00;;;;;;;17.04;57.38;102181.47;5045021;28;20029;-57
2021/03/17 17:17:11;;;;;;;0.10;0.10;;;;;;;17.03;58.17;102180.63;5049285;28;20172;-59
2021/03/17 17:19:37;;;;;;;0.00;0.00;;;;;;;17.04;58.61;102186.88;5050636;28;20032;-59
2021/03/17 17:22:02;;;;;;;0.98;0.55;;;;;;;17.02;59.06;102184.38;5050761;28;20383;-59
2021/03/17 17:24:28;;;;;;;1.75;1.45;;;;;;;17.01;59.47;102171.84;5049650;28;20488;-58
2021/03/17 17:26:53;;;;;;;1.05;0.95;;;;;;;16.98;58.92;102169.50;5054114;28;20415;-58
2021/03/17 17:29:19;;;;;;;0.50;0.50;;;;;;;16.97;59.13;102173.25;5054739;28;20029;-59
2021/03/17 17:31:45;;;;;;;0.65;0.57;;;;;;;16.97;59.37;102175.94;5052592;28;20032;-59
2021/03/17 17:34:10;;;;;;;0.05;0.05;;;;;;;16.97;59.30;102184.09;5054563;28;20111;-59
2021/03/17 17:36:36;;;;;;;1.02;0.93;;;;;;;16.97;58.96;102178.66;5054071;28;20415;-58
2021/03/17 17:39:02;;;;;;;0.10;0.10;;;;;;;16.97;58.56;102185.97;5053865;28;20051;-58
2021/03/17 17:41:28;;;;;;;0.30;0.30;;;;;;;16.97;58.17;102181.38;5053961;28;20039;-59
2021/03/17 17:43:53;;;;;;;1.10;1.00;;;;;;;16.95;57.63;102186.16;5054250;28;20439;-59
2021/03/17 17:46:19;;;;;;;3.47;1.27;;;;;;;16.96;57.81;102182.41;5053773;28;20025;-59
2021/03/17 17:48:45;;;;;;;0.63;0.63;;;;;;;16.95;57.58;102175.31;5054130;28;20040;-58
2021/03/17 17:51:10;;;;;;;0.22;0.22;;;;;;;16.94;57.57;102179.03;5054166;28;20401;-59
2021/03/17 17:53:36;;;;;;;10.25;1.08;;;;;;;16.93;57.99;102175.47;5049003;28;20423;-59
2021/03/17 17:56:02;;;;;;;0.30;0.30;;;;;;;16.91;58.18;102182.13;5049268;28;20032;-58
2021/03/17 17:58:28;;;;;;;0.25;0.25;;;;;;;16.88;57.47;102183.34;5054178;28;20044;-59
2021/03/17 18:00:54;;;;;;;0.63;0.63;;;;;;;16.88;57.86;102185.22;5048645;28;20033;-59
2021/03/17 18:03:19;;;;;;;0.10;0.10;;;;;;;16.88;58.37;102180.63;5053590;28;20029;-58
2021/03/17 18:05:45;;;;;;;0.93;0.50;;;;;;;16.86;58.84;102188.13;5049001;28;20021;-57
2021/03/17 18:08:11;;;;;;;0.55;0.47;;;;;;;16.85;59.14;102191.03;5052177;28;20029;-59
2021/03/17 18:10:37;;;;;;;1.80;1.45;;;;;;;16.83;59.37;102191.19;5053432;28;20114;-59
2021/03/17 18:13:03;;;;;;;1.08;0.55;;;;;;;16.82;59.51;102196.81;5049082;28;20078;-57
2021/03/17 18:15:29;;;;;;;0.88;0.88;;;;;;;16.80;59.63;102198.88;5053503;28;20464;-59
2021/03/17 18:17:55;;;;;;;0.43;0.43;;;;;;;16.77;59.88;102196.53;5053463;28;20063;-58
2021/03/17 18:20:23;;;;;;;1.75;1.10;;;;;;;16.74;60.08;102195.03;5047273;28;20052;-58
2021/03/17 18:22:49;;;;;;;0.10;0.10;;;;;;;16.73;60.14;102204.22;5052644;28;20060;-59
2021/03/17 18:25:15;;;;;;;0.40;0.35;;;;;;;16.72;60.22;102196.25;5048363;28;20479;-59
2021/03/17 18:27:40;;;;;;;0.03;0.03;;;;;;;16.70;60.32;102203.69;5052734;28;20032;-57
2021/03/17 18:30:07;;;;;;;1.08;0.90;;;;;;;16.66;60.27;102198.63;5048249;28;20017;-57
2021/03/17 18:32:32;;;;;;;0.10;0.10;;;;;;;16.65;60.57;102201.53;5053271;28;20078;-58
2021/03/17 18:34:58;;;;;;;0.55;0.47;;;;;;;16.62;60.59;102200.06;5053462;28;20025;-59
2021/03/17 18:37:24;;;;;;;0.00;0.00;;;;;;;16.61;60.44;102203.81;5048262;28;20526;-58
2021/03/17 18:39:49;;;;;;;0.00;0.00;;;;;;;16.59;60.51;102197.69;5047912;28;20116;-58
2021/03/17 18:42:17;;;;;;;0.30;0.30;;;;;;;16.57;60.43;102202.47;5053087;28;20444;-58
2021/03/17 18:44:42;;;;;;;0.20;0.20;;;;;;;16.55;60.46;102212.66;5052746;28;20051;-58
2021/03/17 18:47:08;;;;;;;0.77;0.77;;;;;;;16.54;60.58;102207.41;5048510;28;22184;-58
2021/03/17 18:49:33;;;;;;;0.68;0.68;;;;;;;16.52;60.68;102204.91;5052387;28;20039;-59
2021/03/17 18:51:59;;;;;;;0.00;0.00;;;;;;;16.50;60.41;102212.38;5052663;28;20064;-59
2021/03/17 18:54:25;;;;;;;1.23;0.55;;;;;;;16.50;60.30;102211.50;5048280;28;20622;-57
2021/03/17 18:56:51;;;;;;;0.80;0.73;;;;;;;16.48;60.37;102206.28;5047805;28;20059;-57
2021/03/17 18:59:16;;;;;;;1.33;1.00;;;;;;;16.47;60.37;102212.75;5052583;28;20032;-59
2021/03/17 19:01:44;;;;;;;1.45;1.20;;;;;;;16.45;60.37;102206.66;5047617;28;20021;-58
2021/03/17 19:04:10;;;;;;;0.00;0.00;;;;;;;16.45;60.37;102216.66;5052402;28;20035;-59
2021/03/17 19:06:35;;;;;;;2.55;1.20;;;;;;;16.42;60.26;102212.44;5052464;28;20029;-59
2021/03/17 19:09:01;;;;;;;1.48;0.65;;;;;;;16.41;60.26;102210.75;5052204;28;20033;-57
2021/03/17 19:11:27;;;;;;;0.08;0.08;;;;;;;16.38;60.13;102217.38;5052110;28;20364;-58
2021/03/17 19:13:52;;;;;;;1.48;0.65;;;;;;;16.37;60.01;102214.84;5051095;28;20037;-59
2021/03/17 19:16:18;;;;;;;0.00;0.00;;;;;;;16.35;59.90;102219.63;5045764;28;20100;-59
2021/03/17 19:18:44;;;;;;;0.75;0.35;;;;;;;16.33;59.72;102208.13;5052244;28;20068;-58
2021/03/17 19:21:11;;;;;;;0.80;0.52;;;;;;;16.32;59.75;102206.44;5052407;28;20025;-57
2021/03/17 19:23:38;;;;;;;0.10;0.10;;;;;;;16.30;59.63;102206.63;5051506;28;20364;-57
2021/03/17 19:26:03;;;;;;;0.82;0.28;;;;;;;16.29;59.49;102213.06;5052253;28;20025;-58
2021/03/17 19:28:30;;;;;;;0.20;0.20;;;;;;;16.27;59.62;102211.56;5052767;28;20021;-59
2021/03/17 19:30:55;;;;;;;0.25;0.10;;;;;;;16.25;59.52;102216.34;5051956;28;20103;-59
2021/03/17 19:33:23;;;;;;;0.00;0.00;;;;;;;16.25;59.36;102216.34;5052194;28;20529;-57
2021/03/17 19:35:49;;;;;;;0.20;0.20;;;;;;;16.22;59.26;102222.97;5052254;28;20060;-57
2021/03/17 19:38:15;;;;;;;0.00;0.00;;;;;;;16.21;59.22;102225.84;5051822;28;20456;-57
2021/03/17 19:40:42;;;;;;;0.10;0.10;;;;;;;16.20;59.20;102216.03;5051936;28;20029;-59
2021/03/17 19:43:08;;;;;;;1.27;0.55;;;;;;;16.18;58.97;102220.81;5051565;28;20043;-59
2021/03/17 19:45:34;;;;;;;1.55;0.77;;;;;;;16.17;58.71;102229.97;5051863;28;20032;-59
2021/03/17 19:48:00;;;;;;;0.50;0.17;;;;;;;16.15;58.58;102227.41;5051023;28;20018;-57
2021/03/17 19:50:27;;;;;;;5.68;1.88;;;;;;;16.13;58.62;102230.31;5051802;28;20025;-59
2021/03/17 19:52:53;;;;;;;0.10;0.10;;;;;;;16.12;58.64;102225.91;5051581;28;20017;-59
2021/03/17 19:55:20;;;;;;;0.30;0.30;;;;;;;16.10;58.46;102219.81;5051744;28;20178;-59
2021/03/17 19:57:45;;;;;;;0.30;0.30;;;;;;;16.09;58.33;102223.56;5051588;28;20375;-59
2021/03/17 20:00:14;;;;;;;0.00;0.00;;;;;;;16.08;58.15;102238.13;5051471;28;20096;-58
2021/03/17 20:02:40;;;;;;;0.00;0.00;;;;;;;16.07;58.06;102232.91;5051692;28;20021;-59
2021/03/17 20:05:07;;;;;;;0.00;0.00;;;;;;;16.06;58.10;102239.34;5050157;28;20027;-58
2021/03/17 20:07:32;;;;;;;0.00;0.00;;;;;;;16.04;58.05;102241.38;5051677;28;20422;-59
2021/03/17 20:09:58;;;;;;;0.00;0.00;;;;;;;16.02;57.90;102240.72;5050997;28;20021;-59
2021/03/17 20:12:25;;;;;;;0.00;0.00;;;;;;;16.00;57.61;102243.63;5050394;28;20025;-57
2021/03/17 20:14:51;;;;;;;0.00;0.00;;;;;;;15.99;57.59;102236.50;5051060;28;20032;-57
2021/03/17 20:17:17;;;;;;;0.32;0.10;;;;;;;15.96;57.51;102236.88;5051729;28;20365;-59
2021/03/17 20:19:43;;;;;;;0.20;0.15;;;;;;;15.95;57.36;102232.50;5051295;28;20117;-59
2021/03/17 20:22:08;;;;;;;0.00;0.00;;;;;;;15.94;57.05;102241.66;5051184;28;20031;-59
2021/03/17 20:24:34;;;;;;;0.25;0.25;;;;;;;15.93;57.18;102245.34;5051257;28;20414;-58
2021/03/17 20:26:59;;;;;;;0.13;0.13;;;;;;;15.91;56.95;102242.00;5051335;28;20533;-59
2021/03/17 20:29:25;;;;;;;0.00;0.00;;;;;;;15.90;56.78;102250.31;5051192;28;20029;-59
2021/03/17 20:31:51;;;;;;;0.00;0.00;;;;;;;15.89;56.74;102248.63;5050984;28;20631;-58
2021/03/17 20:34:16;;;;;;;0.00;0.00;;;;;;;15.86;56.83;102250.66;5051650;28;20087;-59
2021/03/17 20:36:42;;;;;;;1.23;0.63;;;;;;;15.86;56.74;102255.22;5051280;28;20443;-58
2021/03/17 20:39:08;;;;;;;0.20;0.20;;;;;;;15.84;56.61;102263.53;5050737;28;20041;-59
2021/03/17 20:41:34;;;;;;;10.05;1.35;;;;;;;15.84;56.58;102262.69;5051137;28;20031;-59
2021/03/17 20:44:02;;;;;;;0.35;0.30;;;;;;;15.82;56.41;102262.00;5051241;28;20021;-59
2021/03/17 20:46:28;;;;;;;0.75;0.75;;;;;;;15.81;56.42;102258.47;5051042;28;20028;-59
2021/03/17 20:48:54;;;;;;;0.00;0.00;;;;;;;15.79;56.34;102260.53;5044534;28;20387;-59
2021/03/17 20:51:19;;;;;;;2.08;1.02;;;;;;;15.81;56.62;102263.03;5050575;28;20025;-56
2021/03/17 20:53:45;;;;;;;11.85;1.65;;;;;;;15.77;56.45;102253.56;5044920;28;20280;-58
2021/03/17 20:56:10;;;;;;;15.43;0.55;;;;;;;15.80;56.23;102250.53;5048986;28;20071;-55
2021/03/17 20:58:36;;;;;;;0.25;0.17;;;;;;;15.80;56.42;102242.41;5049359;28;20148;-59
2021/03/17 21:01:05;;;;;;;0.08;0.08;;;;;;;15.82;56.84;102243.91;5051790;28;20029;-59
2021/03/17 21:03:30;;;;;;;0.10;0.10;;;;;;;15.86;57.27;102247.94;5054042;28;20021;-58
2021/03/17 21:05:56;;;;;;;0.22;0.22;;;;;;;15.90;57.61;102240.31;5054891;28;20029;-58
2021/03/17 21:08:22;;;;;;;4.47;1.52;;;;;;;15.94;56.92;102244.34;5054802;28;20697;-57
2021/03/17 21:10:47;;;;;;;7.18;1.98;;;;;;;15.99;56.00;102239.22;5054189;28;20098;-56
2021/03/17 21:13:13;;;;;;;6.63;2.13;;;;;;;16.06;55.38;102242.91;5054394;28;20167;-61
2021/03/17 21:15:40;;;;;;;8.45;1.95;;;;;;;16.19;54.30;102236.03;5059921;28;20387;-60
2021/03/17 21:18:07;;;;;;;8.85;2.20;;;;;;;16.30;54.22;102251.88;5054306;28;20291;-60
2021/03/17 21:20:33;;;;;;;6.63;2.10;;;;;;;16.39;54.50;102242.66;5054492;28;20479;-59
2021/03/17 21:22:59;;;;;;;6.35;1.73;;;;;;;16.44;54.49;102245.63;5053966;28;20017;-61
2021/03/17 21:25:27;;;;;;;7.90;2.10;;;;;;;16.50;54.46;102249.47;5053655;28;20017;-60
2021/03/17 21:27:53;;;;;;;5.50;1.60;;;;;;;16.59;54.27;102243.78;5054321;28;20025;-64
2021/03/17 21:30:22;;;;;;;4.80;1.70;;;;;;;16.74;53.94;102233.00;5053776;28;20112;-59
2021/03/17 21:32:48;;;;;;;5.53;2.03;;;;;;;16.79;53.93;102237.88;5054213;28;20028;-60
2021/03/17 21:35:14;;;;;;;7.15;1.95;;;;;;;16.84;53.79;102235.47;5053073;28;20041;-60
2021/03/17 21:37:40;;;;;;;6.20;2.05;;;;;;;16.92;53.90;102238.06;5053925;28;20029;-60
2021/03/17 21:40:09;;;;;;;6.20;2.28;;;;;;;16.99;54.10;102249.03;5054194;28;20037;-60
2021/03/17 21:42:35;;;;;;;6.07;2.00;;;;;;;17.07;53.92;102228.06;5054457;28;20395;-60
2021/03/17 21:45:00;;;;;;;3.97;1.95;;;;;;;17.14;54.05;102231.72;5054134;28;20053;-60
2021/03/17 21:47:26;;;;;;;4.45;1.80;;;;;;;17.25;54.33;102230.38;5054206;28;20518;-60
2021/03/17 21:49:51;;;;;;;9.18;1.90;;;;;;;17.35;54.95;102230.09;5053900;28;20518;-60
2021/03/17 21:52:17;;;;;;;7.63;2.05;;;;;;;17.44;56.32;102235.22;5052336;28;20035;-61
2021/03/17 21:54:44;;;;;;;6.45;2.17;;;;;;;17.54;57.11;102232.22;5053793;28;20104;-61
2021/03/17 21:57:10;;;;;;;12.52;2.42;;;;;;;17.62;57.98;102225.81;5054118;28;20047;-61
2021/03/17 21:59:35;;;;;;;9.10;2.00;;;;;;;17.73;58.75;102221.78;5052483;28;20468;-60
2021/03/17 22:02:02;;;;;;;6.25;2.08;;;;;;;17.83;59.39;102225.88;5053958;28;20036;-61
2021/03/17 22:04:27;;;;;;;7.00;2.15;;;;;;;17.93;59.49;102220.13;5053478;28;20040;-61
2021/03/17 22:06:53;;;;;;;3.38;1.70;;;;;;;18.01;59.71;102219.16;5053815;28;20022;-61
2021/03/17 22:09:19;;;;;;;5.65;2.22;;;;;;;18.07;59.18;102215.66;5050761;28;20037;-62
2021/03/17 22:11:44;;;;;;;8.57;2.20;;;;;;;18.18;58.92;102216.00;5028566;28;20490;-60
2021/03/17 22:14:10;;;;;;;8.10;2.42;;;;;;;18.21;58.69;102215.59;5034263;28;20061;-61
2021/03/17 22:16:37;;;;;;;7.00;2.05;;;;;;;18.23;58.02;102229.81;5033573;28;20461;-61
2021/03/17 22:19:03;;;;;;;6.55;1.40;;;;;;;18.25;57.13;102226.94;5033610;28;20041;-60
2021/03/17 22:21:28;;;;;;;5.95;1.98;;;;;;;18.28;56.78;102225.69;5029536;28;20018;-61
2021/03/17 22:23:54;;;;;;;5.10;1.92;;;;;;;18.31;56.28;102219.88;5032214;28;20079;-60
2021/03/17 22:26:20;;;;;;;7.53;1.77;;;;;;;18.36;55.88;102222.84;5031678;28;20072;-61
2021/03/17 22:28:45;;;;;;;5.25;1.90;;;;;;;18.41;55.60;102220.38;5029374;28;20966;-61
2021/03/17 22:31:11;;;;;;;7.45;2.10;;;;;;;18.44;55.17;102225.41;5026994;28;20049;-61
2021/03/17 22:33:37;;;;;;;5.47;1.65;;;;;;;18.46;54.91;102229.63;5027392;28;20460;-61
2021/03/17 22:36:02;;;;;;;3.90;1.42;;;;;;;18.48;54.54;102223.97;5026509;28;20108;-61
2021/03/17 22:38:29;;;;;;;4.40;1.63;;;;;;;18.47;53.97;102231.31;5033390;28;20122;-61
2021/03/17 22:40:55;;;;;;;6.00;1.92;;;;;;;18.47;53.56;102222.31;5032797;28;20029;-61
2021/03/17 22:43:21;;;;;;;4.40;1.70;;;;;;;18.48;53.51;102221.25;5052773;28;20053;-61
2021/03/17 22:45:47;;;;;;;6.78;2.38;;;;;;;18.47;53.53;102217.69;5052886;28;20063;-61
2021/03/17 22:48:12;;;;;;;4.50;1.48;;;;;;;18.46;53.66;102213.31;5052933;28;20029;-61
2021/03/17 22:50:44;;;;;;;4.88;1.80;;;;;;;18.45;53.46;102216.19;5052694;28;20124;-61
2021/03/17 22:53:09;;;;;;;7.05;2.00;;;;;;;18.44;53.33;102226.25;5053067;28;20475;-61
2021/03/17 22:55:35;;;;;;;4.78;1.80;;;;;;;18.42;53.71;102219.31;5043309;28;20123;-61
2021/03/17 22:58:01;;;;;;;5.60;1.35;;;;;;;18.42;53.50;102219.31;5048135;28;20108;-61
2021/03/17 23:00:30;;;;;;;3.88;1.77;;;;;;;18.41;53.36;102228.53;5046667;28;20503;-61
2021/03/17 23:02:56;;;;;;;3.83;1.42;;;;;;;18.41;52.83;102223.09;5052267;28;20499;-60
2021/03/17 23:05:22;;;;;;;4.03;1.60;;;;;;;18.42;52.70;102222.06;5042601;28;20025;-61
2021/03/17 23:07:47;;;;;;;4.22;1.55;;;;;;;18.41;52.42;102220.38;5048570;28;20057;-60
2021/03/17 23:10:32;;;;;;;4.57;1.98;;;;;;;18.41;52.63;102217.66;5049832;28;20032;-61
2021/03/17 23:12:57;;;;;;;3.25;1.17;;;;;;;18.37;53.00;102213.63;5050709;28;20032;-61
2021/03/17 23:15:26;;;;;;;5.82;1.55;;;;;;;18.36;53.06;102210.09;5042503;28;20451;-61
2021/03/17 23:17:52;;;;;;;4.90;1.98;;;;;;;18.35;53.25;102208.41;5049914;28;20033;-61
2021/03/17 23:20:17;;;;;;;8.57;2.13;;;;;;;18.35;52.97;102202.09;5052431;28;20518;-61
2021/03/17 23:22:43;;;;;;;2.97;1.25;;;;;;;18.34;52.54;102189.53;5051396;28;20021;-61
2021/03/17 23:25:17;;;;;;;5.45;1.65;;;;;;;18.33;52.46;102196.03;5042660;28;20166;-61
2021/03/17 23:27:43;;;;;;;4.60;1.50;;;;;;;18.33;52.43;102193.31;5052658;28;20059;-61
2021/03/17 23:30:34;;;;;;;5.57;1.42;;;;;;;18.34;52.20;102200.41;5052089;28;20061;-60
2021/03/17 23:33:01;;;;;;;6.10;1.60;;;;;;;18.36;52.05;102198.38;5051406;28;20104;-61
2021/03/17 23:35:31;;;;;;;3.63;1.30;;;;;;;18.38;52.07;102201.72;5052177;28;20488;-61
2021/03/17 23:37:57;;;;;;;2.85;1.45;;;;;;;18.39;52.15;102195.22;5052192;28;20144;-60
2021/03/17 23:40:35;;;;;;;5.13;1.60;;;;;;;18.40;52.26;102194.19;5051887;28;20040;-61
2021/03/17 23:43:01;;;;;;;5.05;1.60;;;;;;;18.40;52.28;102192.31;5047177;28;20025;-61
2021/03/17 23:45:28;;;;;;;3.90;1.58;;;;;;;18.43;52.04;102193.81;5050639;28;20017;-61
2021/03/17 23:47:53;;;;;;;3.90;1.70;;;;;;;18.46;52.19;102193.41;5049385;28;20029;-61
2021/03/17 23:50:24;;;;;;;2.38;1.00;;;;;;;18.49;52.00;102193.00;5052210;28;20028;-61
2021/03/17 23:52:50;;;;;;;6.18;1.70;;;;;;;18.52;51.66;102195.34;5050853;28;20029;-61
2021/03/17 23:55:18;;;;;;;9.45;1.63;;;;;;;18.54;51.22;102195.97;5051935;28;20263;-61